Tapolca, Hungary
Current Conditions -  °F | °C
As of 5:45 PM on Friday 24 Oct 2014 (Local Time) from LHSM Reporting Station
Light Rain Light Rain  
Wind Chill: 40°   Ceiling: 2000
Heat Index: 45°   Visibility: 4mi
Dew Point: 43°   Wind: 8mph
Humidity: 93%   Direction: 360°N
Pressure: 30.09"   Gusts: NA
Location:  46.89°N, 17.44°E
Report Text: LHSM 241545Z 36007KT 6000 -RA OVC020 07/06 Q1019 NOSIG
Loading
Personal Weather Stations






























Interactive Weather Map
Tropical Storm Tracking
New forecast layout! Learn more

10-Day Weather Forecast

Advertisements
Track Severe Weather on mobile